Time;durP1;ratioP1;P1;durP2;ratioP2;P2;SDS_P1;SDS_P2;PMS_P1;PMS_P2;Temp;Humidity;BMP_temperature;BMP_pressure;BME280_temperature;BME280_humidity;BME280_pressure;Samples;Min_cycle;Max_cycle;Signal;HPM_P1;HPM_P2
2022/03/17 00:01:42;;;;;;;;;;;19.10;99.90;;;;;;5043520;28;19936;-60
2022/03/17 00:04:10;;;;;;;;;;;19.10;99.90;;;;;;5046746;28;19936;-62
2022/03/17 00:06:37;;;;;;;;;;;19.10;99.90;;;;;;5046658;28;19956;-59
2022/03/17 00:09:06;;;;;;;;;;;19.10;99.90;;;;;;5052182;28;19924;-59
2022/03/17 00:11:34;;;;;;;;;;;19.00;99.90;;;;;;5046451;28;19940;-62
2022/03/17 00:14:04;;;;;;;;;;;19.00;99.90;;;;;;5054363;28;19925;-64
2022/03/17 00:16:32;;;;;;;;;;;19.10;99.90;;;;;;5054477;28;19940;-69
2022/03/17 00:19:07;;;;;;;;;;;19.00;99.90;;;;;;5062305;28;19932;-69
2022/03/17 00:21:35;;;;;;;;;;;19.00;99.90;;;;;;5056637;28;19935;-60
2022/03/17 00:24:03;;;;;;;;;;;19.00;99.90;;;;;;5057951;28;19929;-65
2022/03/17 00:26:30;;;;;;;;;;;19.00;99.90;;;;;;5048983;28;19964;-61
2022/03/17 00:28:58;;;;;;;;;;;19.00;99.90;;;;;;5054652;28;19932;-66
2022/03/17 00:31:25;;;;;;;;;;;19.00;99.90;;;;;;5051652;28;19929;-62
2022/03/17 00:33:52;;;;;;;;;;;19.00;99.90;;;;;;5044568;28;19931;-65
2022/03/17 00:36:19;;;;;;;;;;;18.90;99.90;;;;;;5040911;28;19932;-68
2022/03/17 00:38:46;;;;;;;;;;;18.90;99.90;;;;;;5048937;28;19925;-60
2022/03/17 00:41:14;;;;;;;;;;;18.90;99.90;;;;;;5046801;28;19925;-63
2022/03/17 00:43:41;;;;;;;;;;;18.90;99.90;;;;;;5048009;28;20321;-61
2022/03/17 00:46:09;;;;;;;;;;;19.00;99.90;;;;;;5041342;28;19951;-65
2022/03/17 00:48:36;;;;;;;;;;;19.00;99.90;;;;;;5048317;28;19929;-63
2022/03/17 00:51:03;;;;;;;;;;;18.90;99.90;;;;;;5039504;28;19929;-62
2022/03/17 00:53:30;;;;;;;;;;;18.90;99.90;;;;;;5045818;28;20398;-64
2022/03/17 00:55:57;;;;;;;;;;;18.90;99.90;;;;;;5043027;28;19928;-61
2022/03/17 00:58:24;;;;;;;;;;;18.90;99.90;;;;;;5046202;28;20399;-64
2022/03/17 01:00:51;;;;;;;;;;;18.90;99.90;;;;;;5043322;28;19932;-59
2022/03/17 01:03:19;;;;;;;;;;;18.90;99.90;;;;;;5047176;28;20335;-61
2022/03/17 01:05:46;;;;;;;;;;;18.90;99.90;;;;;;5044314;28;19928;-59
2022/03/17 01:08:13;;;;;;;;;;;18.90;99.90;;;;;;5035933;28;19929;-60
2022/03/17 01:10:42;;;;;;;;;;;18.90;99.90;;;;;;5028115;28;19929;-64
2022/03/17 01:13:10;;;;;;;;;;;18.90;99.90;;;;;;5044606;28;19929;-64
2022/03/17 01:15:37;;;;;;;;;;;18.90;99.90;;;;;;5035034;28;19925;-61
2022/03/17 01:18:05;;;;;;;;;;;18.90;99.90;;;;;;5028169;28;19933;-59
2022/03/17 01:20:32;;;;;;;;;;;18.90;99.90;;;;;;5031376;28;20328;-61
2022/03/17 01:23:00;;;;;;;;;;;18.90;99.90;;;;;;5034344;28;19931;-65
2022/03/17 01:25:27;;;;;;;;;;;18.90;99.90;;;;;;5028072;28;19929;-60
2022/03/17 01:27:54;;;;;;;;;;;18.80;99.90;;;;;;5043866;28;19925;-61
2022/03/17 01:30:21;;;;;;;;;;;18.80;99.90;;;;;;5048686;28;19952;-61
2022/03/17 01:32:48;;;;;;;;;;;18.80;99.90;;;;;;5042296;28;19929;-60
2022/03/17 01:35:18;;;;;;;;;;;18.80;99.90;;;;;;5040179;28;19929;-62
2022/03/17 01:37:45;;;;;;;;;;;18.80;99.90;;;;;;5039361;28;19928;-63
2022/03/17 01:40:13;;;;;;;;;;;18.80;99.90;;;;;;5048727;28;20380;-68
2022/03/17 01:42:40;;;;;;;;;;;18.80;99.90;;;;;;5053934;28;19929;-62
2022/03/17 01:45:08;;;;;;;;;;;18.80;99.90;;;;;;5047251;28;19925;-61
2022/03/17 01:47:36;;;;;;;;;;;18.80;99.90;;;;;;5048621;28;19929;-63
2022/03/17 01:50:06;;;;;;;;;;;18.80;99.90;;;;;;5048175;28;19932;-60
2022/03/17 01:52:33;;;;;;;;;;;18.80;99.90;;;;;;5043492;28;19935;-65
2022/03/17 01:55:01;;;;;;;;;;;18.80;99.90;;;;;;5049201;28;19924;-62
2022/03/17 01:57:28;;;;;;;;;;;18.80;99.90;;;;;;5045885;28;19951;-64
2022/03/17 01:59:55;;;;;;;;;;;18.80;99.90;;;;;;5049427;28;20046;-63
2022/03/17 02:02:22;;;;;;;;;;;18.80;99.90;;;;;;5040835;28;19925;-63
2022/03/17 02:04:49;;;;;;;;;;;18.90;99.90;;;;;;5043443;28;19932;-59
2022/03/17 02:07:19;;;;;;;;;;;18.90;99.90;;;;;;5048195;28;21555;-63
2022/03/17 02:09:48;;;;;;;;;;;18.80;99.90;;;;;;5047827;28;19936;-61
2022/03/17 02:15:04;;;;;;;;;;;18.80;99.90;;;;;;5048312;28;19925;-62
2022/03/17 02:17:32;;;;;;;;;;;18.80;99.90;;;;;;5039322;28;19929;-62
2022/03/17 02:20:00;;;;;;;;;;;18.70;99.90;;;;;;5046285;28;19935;-64
2022/03/17 02:22:28;;;;;;;;;;;18.70;99.90;;;;;;5040635;28;19929;-62
2022/03/17 02:27:45;;;;;;;;;;;18.70;99.90;;;;;;5042181;28;20031;-62
2022/03/17 02:30:16;;;;;;;;;;;18.70;99.90;;;;;;5049532;28;19933;-64
2022/03/17 02:32:44;;;;;;;;;;;18.70;99.90;;;;;;5050848;28;20276;-65
2022/03/17 02:35:13;;;;;;;;;;;18.70;99.90;;;;;;5050833;28;19929;-61
2022/03/17 02:37:40;;;;;;;;;;;18.70;99.90;;;;;;5048232;28;19929;-66
2022/03/17 02:40:08;;;;;;;;;;;18.80;99.90;;;;;;5043101;28;19936;-62
2022/03/17 02:42:37;;;;;;;;;;;18.80;99.90;;;;;;5053588;28;19944;-62
2022/03/17 02:45:05;;;;;;;;;;;18.80;99.90;;;;;;5043754;28;19933;-60
2022/03/17 02:47:32;;;;;;;;;;;18.80;99.90;;;;;;5042169;28;19929;-60
2022/03/17 02:49:59;;;;;;;;;;;18.80;99.90;;;;;;5048870;28;20396;-58
2022/03/17 02:52:27;;;;;;;;;;;18.80;99.90;;;;;;5042976;28;19929;-63
2022/03/17 02:54:54;;;;;;;;;;;18.80;99.90;;;;;;5051468;28;19932;-62
2022/03/17 02:57:21;;;;;;;;;;;18.80;99.90;;;;;;5047475;28;20388;-63
2022/03/17 02:59:48;;;;;;;;;;;18.80;99.90;;;;;;5041600;28;19925;-59
2022/03/17 03:02:16;;;;;;;;;;;18.80;99.90;;;;;;5043779;28;19929;-64
2022/03/17 03:04:43;;;;;;;;;;;18.70;99.90;;;;;;5045538;28;19928;-61
2022/03/17 03:07:10;;;;;;;;;;;18.70;99.90;;;;;;5038611;28;19929;-61
2022/03/17 03:09:37;;;;;;;;;;;18.70;99.90;;;;;;5030084;28;19929;-65
2022/03/17 03:12:05;;;;;;;;;;;18.70;99.90;;;;;;5042529;28;19929;-62
2022/03/17 03:14:32;;;;;;;;;;;18.70;99.90;;;;;;5041302;28;19929;-65
2022/03/17 03:16:59;;;;;;;;;;;18.70;99.90;;;;;;5040263;28;20502;-63
2022/03/17 03:19:27;;;;;;;;;;;18.70;99.90;;;;;;5032382;28;20316;-66
2022/03/17 03:21:54;;;;;;;;;;;18.70;99.90;;;;;;5033158;28;19925;-59
2022/03/17 03:24:21;;;;;;;;;;;18.70;99.90;;;;;;5040458;28;19925;-60
2022/03/17 03:26:48;;;;;;;;;;;18.70;99.90;;;;;;5046200;28;20319;-60
2022/03/17 03:29:27;;;;;;;;;;;18.70;99.90;;;;;;5045358;28;19925;-60
2022/03/17 03:31:56;;;;;;;;;;;18.70;99.90;;;;;;5040510;28;20286;-64
2022/03/17 03:34:24;;;;;;;;;;;18.80;99.90;;;;;;5044553;28;19933;-60
2022/03/17 03:39:38;;;;;;;;;;;18.70;99.90;;;;;;5046220;28;19937;-59
2022/03/17 03:42:07;;;;;;;;;;;18.70;99.90;;;;;;5039790;28;19929;-63
2022/03/17 03:44:34;;;;;;;;;;;18.70;99.90;;;;;;5051971;28;20000;-58
2022/03/17 03:47:03;;;;;;;;;;;18.70;99.90;;;;;;5050362;28;19956;-59
2022/03/17 03:49:30;;;;;;;;;;;18.70;99.90;;;;;;5045751;28;19959;-63
2022/03/17 03:51:57;;;;;;;;;;;18.80;99.90;;;;;;5049332;28;19929;-62
2022/03/17 03:54:24;;;;;;;;;;;18.80;99.90;;;;;;5046406;28;20369;-59
2022/03/17 03:56:53;;;;;;;;;;;18.80;99.90;;;;;;5044238;28;20309;-63
2022/03/17 03:59:21;;;;;;;;;;;18.80;99.90;;;;;;5045796;28;19933;-64
2022/03/17 04:01:52;;;;;;;;;;;18.80;99.90;;;;;;5046684;28;19924;-62
2022/03/17 04:04:20;;;;;;;;;;;18.80;99.90;;;;;;5042882;28;19933;-63
2022/03/17 04:06:48;;;;;;;;;;;18.80;99.90;;;;;;5043884;28;19929;-63
2022/03/17 04:09:17;;;;;;;;;;;18.80;99.90;;;;;;5044463;28;19931;-61
2022/03/17 04:11:44;;;;;;;;;;;18.90;99.90;;;;;;5044818;28;19929;-64
2022/03/17 04:14:12;;;;;;;;;;;18.80;99.90;;;;;;5046529;28;19929;-59
2022/03/17 04:16:40;;;;;;;;;;;18.80;99.90;;;;;;5043663;28;19933;-61
2022/03/17 04:19:09;;;;;;;;;;;18.80;99.90;;;;;;5047692;28;19936;-61
2022/03/17 04:21:36;;;;;;;;;;;18.80;99.90;;;;;;5045684;28;19925;-60
2022/03/17 04:24:04;;;;;;;;;;;18.80;99.90;;;;;;5044971;28;19925;-61
2022/03/17 04:26:31;;;;;;;;;;;18.80;99.90;;;;;;5046234;28;19928;-68
2022/03/17 04:28:58;;;;;;;;;;;18.80;99.90;;;;;;5047417;28;19932;-60
2022/03/17 04:31:25;;;;;;;;;;;18.80;99.90;;;;;;5044984;28;19928;-63
2022/03/17 04:33:52;;;;;;;;;;;18.80;99.90;;;;;;5038116;28;19928;-63
2022/03/17 04:36:20;;;;;;;;;;;18.80;99.90;;;;;;5040018;28;19933;-63
2022/03/17 04:38:47;;;;;;;;;;;18.80;99.90;;;;;;5045456;28;20464;-61
2022/03/17 04:41:17;;;;;;;;;;;18.80;99.90;;;;;;5044054;28;20299;-66
2022/03/17 04:43:44;;;;;;;;;;;18.80;99.90;;;;;;5046285;28;19944;-64
2022/03/17 04:46:12;;;;;;;;;;;18.80;99.90;;;;;;5045759;28;19928;-62
2022/03/17 04:48:39;;;;;;;;;;;18.80;99.90;;;;;;5040308;28;20227;-60
2022/03/17 04:51:06;;;;;;;;;;;18.80;99.90;;;;;;5044716;28;19931;-64
2022/03/17 04:53:34;;;;;;;;;;;18.80;99.90;;;;;;5043646;28;19932;-61
2022/03/17 04:56:05;;;;;;;;;;;18.90;99.90;;;;;;5046236;28;20335;-67
2022/03/17 04:58:33;;;;;;;;;;;19.00;99.90;;;;;;5038837;28;19936;-65
2022/03/17 05:01:00;;;;;;;;;;;19.00;99.90;;;;;;5042876;28;20014;-63
2022/03/17 05:03:28;;;;;;;;;;;19.10;99.90;;;;;;5042455;28;20444;-65
2022/03/17 05:05:55;;;;;;;;;;;19.20;99.90;;;;;;5043054;28;19929;-62
2022/03/17 05:08:22;;;;;;;;;;;19.30;99.90;;;;;;5042283;28;19932;-63
2022/03/17 05:10:52;;;;;;;;;;;19.40;99.90;;;;;;5046318;28;19933;-62
2022/03/17 05:13:20;;;;;;;;;;;19.50;99.90;;;;;;5045802;28;20427;-63
2022/03/17 05:15:47;;;;;;;;;;;19.60;99.90;;;;;;5045813;28;19935;-62
2022/03/17 05:18:15;;;;;;;;;;;19.80;99.90;;;;;;5050870;28;19935;-64
2022/03/17 05:20:42;;;;;;;;;;;19.90;99.90;;;;;;5042443;28;19936;-64
2022/03/17 05:23:10;;;;;;;;;;;19.90;99.90;;;;;;5044368;28;20265;-64
2022/03/17 05:25:39;;;;;;;;;;;20.00;99.90;;;;;;5045157;28;19929;-62
2022/03/17 05:28:08;;;;;;;;;;;20.00;99.90;;;;;;5043081;28;19925;-63
2022/03/17 05:30:36;;;;;;;;;;;20.00;99.90;;;;;;5039573;28;19932;-61
2022/03/17 05:33:03;;;;;;;;;;;20.00;99.90;;;;;;5048834;28;19928;-64
2022/03/17 05:35:30;;;;;;;;;;;20.00;99.90;;;;;;5055652;28;20418;-66
2022/03/17 05:37:58;;;;;;;;;;;20.10;99.90;;;;;;5058694;28;19929;-71
2022/03/17 05:40:25;;;;;;;;;;;20.10;99.90;;;;;;5053171;28;19936;-62
2022/03/17 05:42:55;;;;;;;;;;;20.10;99.90;;;;;;5050364;28;19936;-65
2022/03/17 05:45:24;;;;;;;;;;;20.10;99.90;;;;;;5081090;28;19924;-64
2022/03/17 05:47:53;;;;;;;;;;;20.20;99.90;;;;;;5037804;28;19996;-61
2022/03/17 05:50:21;;;;;;;;;;;20.20;99.90;;;;;;5038718;28;19929;-60
2022/03/17 05:52:49;;;;;;;;;;;20.20;99.90;;;;;;5044579;28;19932;-61
2022/03/17 05:55:17;;;;;;;;;;;20.20;99.90;;;;;;5043402;28;19924;-63
2022/03/17 05:57:46;;;;;;;;;;;20.20;99.90;;;;;;5031068;28;19929;-62
2022/03/17 06:00:15;;;;;;;;;;;20.20;99.90;;;;;;5039177;28;19929;-64
2022/03/17 06:02:42;;;;;;;;;;;20.20;99.90;;;;;;5048497;28;19943;-60
2022/03/17 06:05:11;;;;;;;;;;;20.10;99.90;;;;;;5048390;28;20576;-60
2022/03/17 06:07:39;;;;;;;;;;;20.10;99.90;;;;;;5043935;28;19928;-61
2022/03/17 06:10:08;;;;;;;;;;;20.10;99.90;;;;;;5045237;28;20289;-62
2022/03/17 06:12:35;;;;;;;;;;;20.10;99.90;;;;;;5043593;28;20024;-57
2022/03/17 06:15:03;;;;;;;;;;;20.10;99.90;;;;;;5041582;28;19929;-66
2022/03/17 06:17:42;;;;;;;;;;;20.10;99.90;;;;;;5035047;28;19925;-69
2022/03/17 06:20:11;;;;;;;;;;;20.10;99.90;;;;;;5042586;28;20404;-67
2022/03/17 06:22:40;;;;;;;;;;;20.00;99.90;;;;;;5038504;28;19955;-60
2022/03/17 06:25:08;;;;;;;;;;;20.10;99.90;;;;;;5042763;28;19925;-65
2022/03/17 06:27:35;;;;;;;;;;;20.10;99.90;;;;;;5042712;28;19936;-66
2022/03/17 06:30:06;;;;;;;;;;;20.10;99.90;;;;;;5044451;28;19929;-63
2022/03/17 06:32:34;;;;;;;;;;;20.00;99.90;;;;;;5041859;28;19932;-66
2022/03/17 06:35:01;;;;;;;;;;;20.00;99.90;;;;;;5043564;28;19933;-67
2022/03/17 06:37:28;;;;;;;;;;;20.10;99.90;;;;;;5039765;28;19937;-66
2022/03/17 06:39:55;;;;;;;;;;;20.10;99.90;;;;;;5040812;28;19936;-66
2022/03/17 06:42:22;;;;;;;;;;;20.10;99.90;;;;;;5041450;28;20264;-64
2022/03/17 06:44:50;;;;;;;;;;;20.10;99.90;;;;;;5042384;28;19933;-66
2022/03/17 06:47:20;;;;;;;;;;;20.10;99.90;;;;;;5039178;28;19929;-65
2022/03/17 06:49:47;;;;;;;;;;;20.00;99.90;;;;;;5040012;28;19977;-66
2022/03/17 06:52:14;;;;;;;;;;;20.00;99.90;;;;;;5041629;28;20399;-69
2022/03/17 06:54:42;;;;;;;;;;;20.00;99.90;;;;;;5042121;28;20380;-66
2022/03/17 06:57:09;;;;;;;;;;;20.00;99.90;;;;;;5040800;28;19924;-68
2022/03/17 06:59:36;;;;;;;;;;;20.00;99.90;;;;;;5042008;28;20423;-67
2022/03/17 07:02:03;;;;;;;;;;;19.90;99.90;;;;;;5040622;28;19932;-68
2022/03/17 07:04:31;;;;;;;;;;;19.90;99.90;;;;;;5040505;28;19932;-67
2022/03/17 07:06:59;;;;;;;;;;;19.90;99.90;;;;;;5041472;28;19925;-69
2022/03/17 07:09:26;;;;;;;;;;;19.90;99.90;;;;;;5042222;28;19933;-68
2022/03/17 07:11:54;;;;;;;;;;;19.90;99.90;;;;;;5040282;28;20432;-68
2022/03/17 07:14:21;;;;;;;;;;;19.90;99.90;;;;;;5040462;28;19948;-71
2022/03/17 07:16:48;;;;;;;;;;;19.90;99.90;;;;;;5041242;28;20340;-67
2022/03/17 07:19:16;;;;;;;;;;;19.90;99.90;;;;;;5040831;28;20380;-69
2022/03/17 07:21:43;;;;;;;;;;;19.80;99.90;;;;;;5044383;28;19940;-68
2022/03/17 07:24:10;;;;;;;;;;;19.80;99.90;;;;;;5043012;28;19932;-68
2022/03/17 07:26:40;;;;;;;;;;;19.80;99.90;;;;;;5042030;28;19929;-65
2022/03/17 07:29:08;;;;;;;;;;;19.80;99.90;;;;;;5042385;28;19933;-69
2022/03/17 07:31:37;;;;;;;;;;;19.80;99.90;;;;;;5042990;28;19940;-68
2022/03/17 07:34:07;;;;;;;;;;;19.80;99.90;;;;;;5043025;28;19940;-68
2022/03/17 07:36:34;;;;;;;;;;;19.80;99.90;;;;;;5042082;28;19935;-69
2022/03/17 07:39:04;;;;;;;;;;;19.80;99.90;;;;;;5042256;28;20308;-66
2022/03/17 07:41:31;;;;;;;;;;;19.80;99.90;;;;;;5042655;28;20425;-68
2022/03/17 07:44:02;;;;;;;;;;;19.70;99.90;;;;;;5044959;28;19929;-62
2022/03/17 07:46:52;;;;;;;;;;;19.70;99.90;;;;;;5045297;28;19936;-63
2022/03/17 07:49:29;;;;;;;;;;;19.70;99.90;;;;;;5041370;28;20439;-59
2022/03/17 07:51:56;;;;;;;;;;;19.70;99.90;;;;;;5045253;28;19935;-60
2022/03/17 07:54:23;;;;;;;;;;;19.90;99.90;;;;;;5043987;28;19948;-60
2022/03/17 07:56:50;;;;;;;;;;;20.00;99.90;;;;;;5040413;28;19935;-62
2022/03/17 07:59:18;;;;;;;;;;;20.20;99.90;;;;;;5041713;28;19929;-63
2022/03/17 08:01:45;;;;;;;;;;;20.30;99.90;;;;;;5041090;28;19924;-60
2022/03/17 08:04:13;;;;;;;;;;;20.30;99.90;;;;;;5040633;28;19955;-61
2022/03/17 08:06:41;;;;;;;;;;;20.30;99.90;;;;;;5023006;28;19930;-63
2022/03/17 08:09:08;;;;;;;;;;;20.30;99.90;;;;;;5040112;28;19936;-70
2022/03/17 08:11:36;;;;;;;;;;;20.30;99.90;;;;;;5041425;28;20055;-64
2022/03/17 08:14:03;;;;;;;;;;;20.40;99.90;;;;;;5040977;28;19933;-61
2022/03/17 08:16:30;;;;;;;;;;;20.40;99.90;;;;;;5039525;28;19955;-60
2022/03/17 08:19:01;;;;;;;;;;;20.30;99.90;;;;;;5042919;28;19925;-67
2022/03/17 08:21:33;;;;;;;;;;;20.30;99.90;;;;;;5040350;28;19932;-58
2022/03/17 08:24:00;;;;;;;;;;;20.30;99.90;;;;;;5041128;28;19936;-62
2022/03/17 08:26:27;;;;;;;;;;;20.30;99.90;;;;;;5038621;28;19928;-60
2022/03/17 08:28:55;;;;;;;;;;;20.30;99.90;;;;;;5038686;28;19933;-60
2022/03/17 08:31:22;;;;;;;;;;;20.20;99.90;;;;;;5040566;28;19925;-56
2022/03/17 08:33:50;;;;;;;;;;;20.20;99.90;;;;;;5041195;28;20395;-58
2022/03/17 08:36:17;;;;;;;;;;;20.20;99.90;;;;;;5040772;28;19932;-61
2022/03/17 08:38:45;;;;;;;;;;;20.20;99.90;;;;;;5041862;28;19932;-63
2022/03/17 08:41:12;;;;;;;;;;;20.10;99.90;;;;;;5045283;28;20634;-59
2022/03/17 08:43:39;;;;;;;;;;;20.10;99.90;;;;;;5045104;28;19929;-59
2022/03/17 08:49:38;;;;;;;;;;;19.90;99.60;;;;;;5043282;28;19945;-60
2022/03/17 08:51:40;;;;;;;;;;;19.90;99.50;;;;;;5035060;28;19929;-57
2022/03/17 08:54:08;;;;;;;;;;;19.90;99.50;;;;;;5042925;28;19929;-62
2022/03/17 08:56:36;;;;;;;;;;;19.90;99.70;;;;;;5040090;28;19960;-63
2022/03/17 08:59:06;;;;;;;;;;;19.90;99.80;;;;;;5040566;28;19933;-58
2022/03/17 09:01:37;;;;;;;;;;;19.90;99.90;;;;;;5060874;28;19924;-60
2022/03/17 09:04:05;;;;;;;;;;;19.90;99.90;;;;;;5038614;28;19952;-61
2022/03/17 09:06:32;;;;;;;;;;;19.80;99.90;;;;;;5038956;28;19932;-61
2022/03/17 09:08:59;;;;;;;;;;;19.80;99.90;;;;;;5037657;28;20403;-61
2022/03/17 09:11:26;;;;;;;;;;;19.80;99.90;;;;;;5037849;28;19948;-57
2022/03/17 09:13:58;;;;;;;;;;;19.80;99.90;;;;;;5037212;28;19936;-61
2022/03/17 09:16:25;;;;;;;;;;;19.70;99.90;;;;;;5038525;28;19929;-60
2022/03/17 09:18:52;;;;;;;;;;;19.80;99.90;;;;;;5038777;28;19928;-59
2022/03/17 09:21:20;;;;;;;;;;;19.70;99.90;;;;;;5039087;28;20404;-59
2022/03/17 09:23:47;;;;;;;;;;;19.70;99.90;;;;;;5039759;28;19936;-60
2022/03/17 09:26:16;;;;;;;;;;;19.70;99.90;;;;;;5037675;28;19940;-61
2022/03/17 09:28:43;;;;;;;;;;;19.70;99.90;;;;;;5039129;28;19929;-57
2022/03/17 09:31:11;;;;;;;;;;;19.70;99.90;;;;;;5037499;28;19936;-59
2022/03/17 09:33:38;;;;;;;;;;;19.70;99.90;;;;;;5041189;28;19933;-62
2022/03/17 09:36:09;;;;;;;;;;;19.70;99.90;;;;;;5040281;28;20293;-61
2022/03/17 09:38:37;;;;;;;;;;;19.60;99.90;;;;;;5040171;28;19952;-61
2022/03/17 09:41:23;;;;;;;;;;;19.60;99.90;;;;;;5041147;28;21146;-61
2022/03/17 09:43:51;;;;;;;;;;;19.60;99.90;;;;;;5042577;28;20413;-57
2022/03/17 09:46:21;;;;;;;;;;;19.60;99.90;;;;;;5043733;28;20328;-57
2022/03/17 09:48:52;;;;;;;;;;;19.60;99.90;;;;;;5042950;28;19939;-59
2022/03/17 09:51:21;;;;;;;;;;;19.60;99.90;;;;;;5044679;28;20488;-61
2022/03/17 09:53:52;;;;;;;;;;;19.60;99.90;;;;;;5045034;28;19928;-62
2022/03/17 09:56:23;;;;;;;;;;;19.60;99.90;;;;;;5042046;28;19929;-61
2022/03/17 09:58:51;;;;;;;;;;;19.70;99.90;;;;;;5039652;28;20285;-58
2022/03/17 10:01:19;;;;;;;;;;;19.70;99.90;;;;;;5044421;28;19928;-60
2022/03/17 10:03:47;;;;;;;;;;;19.70;99.90;;;;;;5042916;28;20502;-58
2022/03/17 10:06:15;;;;;;;;;;;19.70;99.90;;;;;;5045046;28;19936;-58
2022/03/17 10:08:45;;;;;;;;;;;19.70;99.90;;;;;;5044006;28;19936;-58
2022/03/17 10:11:18;;;;;;;;;;;19.60;99.90;;;;;;5053866;28;19929;-61
2022/03/17 10:13:46;;;;;;;;;;;19.70;99.90;;;;;;5047149;28;19944;-59
2022/03/17 10:16:17;;;;;;;;;;;19.60;99.90;;;;;;5047733;28;19932;-60
2022/03/17 10:18:46;;;;;;;;;;;19.70;99.90;;;;;;5044489;28;19928;-59
2022/03/17 10:21:16;;;;;;;;;;;19.60;99.90;;;;;;5045308;28;20392;-60
2022/03/17 10:23:56;;;;;;;;;;;19.60;99.90;;;;;;5041979;28;19928;-58
2022/03/17 10:26:32;;;;;;;;;;;19.60;99.90;;;;;;5042255;28;19936;-59
2022/03/17 10:29:04;;;;;;;;;;;19.60;99.90;;;;;;5044394;28;19933;-61
2022/03/17 10:31:32;;;;;;;;;;;19.60;99.90;;;;;;5043626;28;19931;-60
2022/03/17 10:34:02;;;;;;;;;;;19.50;99.90;;;;;;5045700;28;19932;-56
2022/03/17 10:36:30;;;;;;;;;;;19.50;99.90;;;;;;5040183;28;19929;-60
2022/03/17 10:38:57;;;;;;;;;;;19.40;99.90;;;;;;5040246;28;19929;-58
2022/03/17 10:41:25;;;;;;;;;;;19.40;99.90;;;;;;5044062;28;20384;-64
2022/03/17 10:43:58;;;;;;;;;;;19.40;99.90;;;;;;5049069;28;19936;-60
2022/03/17 10:46:25;;;;;;;;;;;19.40;99.90;;;;;;5048532;28;19937;-57
2022/03/17 10:48:55;;;;;;;;;;;19.40;99.90;;;;;;5045644;28;19935;-60
2022/03/17 10:51:40;;;;;;;;;;;19.40;99.90;;;;;;5042256;28;19928;-59
2022/03/17 10:54:12;;;;;;;;;;;19.40;99.90;;;;;;5043241;28;19928;-56
2022/03/17 10:56:39;;;;;;;;;;;19.40;99.90;;;;;;5044685;28;19932;-59
2022/03/17 10:59:07;;;;;;;;;;;19.40;99.90;;;;;;5050707;28;20003;-55
2022/03/17 11:01:50;;;;;;;;;;;19.40;99.90;;;;;;5042212;28;19955;-54
2022/03/17 11:04:18;;;;;;;;;;;19.30;99.90;;;;;;5046059;28;19938;-58
2022/03/17 11:06:50;;;;;;;;;;;19.30;99.90;;;;;;5041422;28;19936;-58
2022/03/17 11:09:22;;;;;;;;;;;19.40;99.90;;;;;;5046033;28;19929;-57
2022/03/17 11:11:49;;;;;;;;;;;19.30;99.90;;;;;;5044047;28;20392;-57
2022/03/17 11:14:18;;;;;;;;;;;19.30;99.90;;;;;;5046813;28;19928;-59
2022/03/17 11:16:50;;;;;;;;;;;19.30;99.90;;;;;;5046297;28;20031;-57
2022/03/17 11:19:19;;;;;;;;;;;19.30;99.90;;;;;;5043007;28;19929;-57
2022/03/17 11:21:48;;;;;;;;;;;19.30;99.90;;;;;;5044369;28;20195;-57
2022/03/17 11:24:19;;;;;;;;;;;19.30;99.90;;;;;;5052111;28;19940;-57
2022/03/17 11:26:47;;;;;;;;;;;19.30;99.90;;;;;;5050329;28;20411;-62
2022/03/17 11:29:18;;;;;;;;;;;19.30;99.90;;;;;;5046322;28;19928;-56
2022/03/17 11:31:48;;;;;;;;;;;19.30;99.90;;;;;;5047998;28;19935;-58
2022/03/17 11:34:41;;;;;;;;;;;19.30;99.90;;;;;;5048232;28;19929;-58
2022/03/17 11:37:16;;;;;;;;;;;19.30;99.90;;;;;;5041981;28;19935;-56
2022/03/17 11:39:57;;;;;;;;;;;19.30;99.90;;;;;;5045620;28;19928;-59
2022/03/17 11:42:43;;;;;;;;;;;19.30;99.90;;;;;;5042512;28;19928;-60
2022/03/17 11:45:13;;;;;;;;;;;19.30;99.90;;;;;;5044928;28;19936;-60
2022/03/17 11:47:53;;;;;;;;;;;19.40;99.90;;;;;;5049042;28;20617;-60
2022/03/17 11:50:38;;;;;;;;;;;19.50;99.90;;;;;;5047079;28;20377;-59
2022/03/17 11:53:11;;;;;;;;;;;19.60;99.90;;;;;;5047723;28;20328;-58
2022/03/17 11:55:42;;;;;;;;;;;19.70;99.90;;;;;;5043012;28;19928;-60
2022/03/17 11:58:24;;;;;;;;;;;19.90;99.90;;;;;;5045568;28;20387;-61
2022/03/17 12:00:53;;;;;;;;;;;19.90;99.90;;;;;;5039769;28;19933;-60
2022/03/17 12:03:44;;;;;;;;;;;20.00;99.90;;;;;;5044976;28;20423;-58
2022/03/17 12:06:13;;;;;;;;;;;20.10;99.90;;;;;;5031885;28;19928;-59
2022/03/17 12:08:46;;;;;;;;;;;20.10;99.90;;;;;;5043458;28;19928;-58
2022/03/17 12:11:14;;;;;;;;;;;20.10;99.90;;;;;;5043801;28;19929;-57
2022/03/17 12:13:42;;;;;;;;;;;20.10;99.90;;;;;;5043556;28;19952;-59
2022/03/17 12:16:12;;;;;;;;;;;20.10;99.90;;;;;;5047779;28;19943;-56
2022/03/17 12:19:01;;;;;;;;;;;20.10;99.90;;;;;;5047722;28;19929;-58
2022/03/17 12:21:47;;;;;;;;;;;20.10;99.90;;;;;;5045379;28;19939;-60
2022/03/17 12:24:32;;;;;;;;;;;20.00;99.90;;;;;;5042255;28;19940;-59
2022/03/17 12:27:08;;;;;;;;;;;20.00;99.90;;;;;;5042163;28;19936;-59
2022/03/17 12:29:36;;;;;;;;;;;20.00;99.90;;;;;;5039483;28;20024;-58
2022/03/17 12:32:05;;;;;;;;;;;20.00;99.90;;;;;;5046719;28;19925;-59
2022/03/17 12:34:33;;;;;;;;;;;20.00;99.90;;;;;;5048266;28;19925;-59
2022/03/17 12:37:01;;;;;;;;;;;20.00;99.90;;;;;;5045975;28;20408;-58
2022/03/17 12:39:36;;;;;;;;;;;20.00;99.90;;;;;;5042570;28;20269;-59
2022/03/17 12:42:14;;;;;;;;;;;20.00;99.90;;;;;;5041365;28;19925;-61
2022/03/17 12:44:51;;;;;;;;;;;19.90;99.90;;;;;;5054984;28;19929;-57
2022/03/17 12:47:20;;;;;;;;;;;19.90;99.90;;;;;;5043270;28;19933;-57
2022/03/17 12:49:48;;;;;;;;;;;19.90;99.90;;;;;;5047290;28;20323;-60
2022/03/17 12:52:20;;;;;;;;;;;19.90;99.90;;;;;;5044546;28;19929;-58
2022/03/17 12:54:48;;;;;;;;;;;19.80;99.90;;;;;;5040190;28;19944;-60
2022/03/17 12:57:16;;;;;;;;;;;19.80;99.90;;;;;;5029721;28;19936;-61
2022/03/17 12:59:43;;;;;;;;;;;19.80;99.90;;;;;;5030320;28;20401;-59
2022/03/17 13:02:16;;;;;;;;;;;19.80;99.90;;;;;;5030312;28;19944;-57
2022/03/17 13:04:45;;;;;;;;;;;19.80;99.90;;;;;;5034813;28;20642;-60
2022/03/17 13:07:14;;;;;;;;;;;19.80;99.90;;;;;;5036811;28;19925;-57
2022/03/17 13:09:42;;;;;;;;;;;19.80;99.90;;;;;;5032365;28;19929;-59
2022/03/17 13:14:56;;;;;;;;;;;19.70;99.90;;;;;;5049881;28;19929;-61
2022/03/17 13:17:39;;;;;;;;;;;19.70;99.90;;;;;;5034566;28;19936;-56
2022/03/17 13:20:08;;;;;;;;;;;19.70;99.90;;;;;;5051189;28;19936;-62
2022/03/17 13:22:39;;;;;;;;;;;19.60;99.90;;;;;;5048659;28;19929;-58
2022/03/17 13:25:08;;;;;;;;;;;19.60;99.90;;;;;;5044540;28;19935;-61
2022/03/17 13:27:37;;;;;;;;;;;19.60;99.90;;;;;;5050139;28;19936;-65
2022/03/17 13:30:08;;;;;;;;;;;19.60;99.90;;;;;;5046091;28;19925;-61
2022/03/17 13:32:36;;;;;;;;;;;19.60;99.90;;;;;;5037497;28;19936;-57
2022/03/17 13:35:04;;;;;;;;;;;19.60;99.90;;;;;;5039774;28;19925;-61
2022/03/17 13:37:32;;;;;;;;;;;19.60;99.90;;;;;;5039665;28;19929;-64
2022/03/17 13:40:00;;;;;;;;;;;19.60;99.90;;;;;;5056134;28;19939;-64
2022/03/17 13:42:28;;;;;;;;;;;19.60;99.90;;;;;;5054880;28;19928;-63
2022/03/17 13:45:00;;;;;;;;;;;19.60;99.90;;;;;;5056289;28;19929;-60
2022/03/17 13:47:58;;;;;;;;;;;19.60;99.90;;;;;;5051530;28;19940;-61
2022/03/17 13:50:25;;;;;;;;;;;19.60;99.90;;;;;;5051643;28;19928;-62
2022/03/17 13:53:12;;;;;;;;;;;19.60;99.90;;;;;;5056799;28;19929;-62
2022/03/17 13:55:58;;;;;;;;;;;19.60;99.90;;;;;;5051166;28;20380;-64
2022/03/17 13:58:26;;;;;;;;;;;19.60;99.90;;;;;;5054099;28;19933;-59
2022/03/17 14:00:55;;;;;;;;;;;19.60;99.90;;;;;;5052463;28;20518;-62
2022/03/17 14:03:28;;;;;;;;;;;19.60;99.90;;;;;;5049270;28;21325;-61
2022/03/17 14:06:07;;;;;;;;;;;19.60;99.90;;;;;;5052345;28;19936;-61
2022/03/17 14:08:35;;;;;;;;;;;19.60;99.90;;;;;;5051034;28;19929;-60
2022/03/17 14:11:04;;;;;;;;;;;19.60;99.90;;;;;;5054316;28;19929;-65
2022/03/17 14:13:32;;;;;;;;;;;19.60;99.90;;;;;;5053698;28;20102;-61
2022/03/17 14:16:00;;;;;;;;;;;19.60;99.90;;;;;;5051513;28;19940;-61
2022/03/17 14:18:27;;;;;;;;;;;19.60;99.90;;;;;;5055639;28;20396;-60
2022/03/17 14:20:58;;;;;;;;;;;19.60;99.90;;;;;;5057453;28;19928;-62
2022/03/17 14:26:12;;;;;;;;;;;19.50;99.90;;;;;;5054555;28;20328;-61
2022/03/17 14:28:40;;;;;;;;;;;19.50;99.90;;;;;;5053759;28;19970;-60
2022/03/17 14:31:08;;;;;;;;;;;19.50;99.90;;;;;;5050137;28;19944;-60
2022/03/17 14:33:37;;;;;;;;;;;19.50;99.90;;;;;;5058860;28;19929;-60
2022/03/17 14:36:05;;;;;;;;;;;19.50;99.90;;;;;;5050792;28;19932;-58
2022/03/17 14:38:33;;;;;;;;;;;19.50;99.90;;;;;;5053761;28;19936;-61
2022/03/17 14:41:01;;;;;;;;;;;19.50;99.90;;;;;;5047906;28;19929;-59
2022/03/17 14:43:29;;;;;;;;;;;19.50;99.90;;;;;;5057010;28;19929;-59
2022/03/17 14:45:56;;;;;;;;;;;19.50;99.90;;;;;;5056817;28;19925;-60